createdAt,value
2019-03-30T13:55:42.535Z,33.60
2019-03-30T13:58:12.743Z,33.50
2019-03-30T14:00:42.767Z,33.50
2019-03-30T14:15:21.688Z,33.70
2019-03-30T14:17:52.701Z,36.00
2019-03-30T14:20:51.015Z,34.20
2019-03-30T14:23:32.441Z,34.60
2019-03-30T14:26:03.133Z,36.00
2019-03-30T14:28:35.358Z,36.20
2019-03-30T14:31:05.572Z,36.80
2019-03-30T14:33:35.893Z,37.00
2019-03-30T14:36:07.143Z,38.90
2019-03-30T14:38:37.163Z,37.10
2019-03-30T14:41:07.678Z,35.80
2019-03-30T14:43:37.708Z,37.50
2019-03-30T14:46:08.388Z,38.00
2019-03-30T14:48:38.471Z,40.00
2019-03-30T14:51:09.621Z,37.30
2019-03-30T14:53:40.106Z,36.80
2019-03-30T14:56:10.348Z,37.60
2019-03-30T14:58:40.939Z,38.30
2019-03-30T15:01:11.871Z,38.40
2019-03-30T15:03:41.996Z,38.30
2019-03-30T15:06:12.437Z,38.80
2019-03-30T15:08:42.506Z,38.80
2019-03-30T15:11:12.726Z,39.50
2019-03-30T15:13:42.828Z,38.70
2019-03-30T15:16:15.065Z,39.30
2019-03-30T15:18:46.917Z,40.00
2019-03-30T15:21:16.994Z,39.20
2019-03-30T15:23:48.897Z,40.30
2019-03-30T15:26:22.144Z,40.90
2019-03-30T15:28:53.079Z,40.10
2019-03-30T15:31:23.291Z,40.30
2019-03-30T15:33:53.587Z,39.80
2019-03-30T15:36:24.284Z,39.90
2019-03-30T15:38:54.687Z,40.60
2019-03-30T15:41:24.792Z,41.80
2019-03-30T15:43:55.157Z,40.50
2019-03-30T15:46:27.112Z,41.30
2019-03-30T15:49:12.123Z,40.20
2019-03-30T15:51:45.306Z,41.10
2019-03-30T15:54:15.319Z,40.30
2019-03-30T15:56:45.663Z,40.20
2019-03-30T15:59:17.987Z,41.00
2019-03-30T16:01:47.902Z,39.80
2019-03-30T16:04:17.882Z,40.80
2019-03-30T16:06:50.386Z,39.90
2019-03-30T16:09:20.733Z,41.20
2019-03-30T16:11:52.241Z,40.90
2019-03-30T16:14:22.082Z,40.90
2019-03-30T16:16:52.092Z,41.90
2019-03-30T16:19:23.951Z,40.90
2019-03-30T16:21:54.532Z,41.90
2019-03-30T16:24:24.954Z,41.40
2019-03-30T16:27:09.167Z,41.60
2019-03-30T16:29:39.134Z,43.10
2019-03-30T16:32:10.376Z,42.70
2019-03-30T16:34:40.986Z,43.10
2019-03-30T16:37:12.232Z,43.00
2019-03-30T16:39:43.727Z,42.00
2019-03-30T16:42:14.459Z,42.20
2019-03-30T16:44:46.425Z,43.10
2019-03-30T16:47:16.526Z,42.10
2019-03-30T16:49:46.561Z,42.90
2019-03-30T16:52:18.479Z,42.40
2019-03-30T16:54:49.451Z,41.50
2019-03-30T16:57:20.174Z,41.70
2019-03-30T16:59:52.084Z,43.00
2019-03-30T17:02:23.038Z,42.40
2019-03-30T17:04:54.056Z,42.80
2019-03-30T17:07:24.611Z,44.30
2019-03-30T17:09:56.537Z,43.80
2019-03-30T17:12:33.186Z,43.40
2019-03-30T17:15:04.257Z,44.00
2019-03-30T17:17:34.345Z,45.20
2019-03-30T17:20:07.792Z,45.00
2019-03-30T17:22:39.895Z,44.60
2019-03-30T17:25:09.971Z,44.80
2019-03-30T17:27:56.895Z,45.00
2019-03-30T17:30:14.156Z,45.00
2019-03-30T17:32:44.114Z,45.80
2019-03-30T17:35:14.680Z,46.40
2019-03-30T17:37:45.278Z,45.70
2019-03-30T17:40:15.443Z,46.40
2019-03-30T17:42:53.182Z,47.50
2019-03-30T17:45:23.044Z,46.40
2019-03-30T17:47:52.883Z,46.80
2019-03-30T17:50:25.484Z,47.30
2019-03-30T17:52:57.140Z,47.80
2019-03-30T17:55:33.629Z,47.20
2019-03-30T17:58:12.198Z,48.40
2019-03-30T18:00:31.836Z,48.80
2019-03-30T18:03:01.713Z,48.80
2019-03-30T18:05:33.554Z,48.50
2019-03-30T18:08:07.185Z,48.70
2019-03-30T18:10:38.532Z,49.50
2019-03-30T18:13:08.418Z,48.80
2019-03-30T18:15:38.295Z,48.80
2019-03-30T18:18:08.454Z,49.10
2019-03-30T18:20:38.723Z,49.30
2019-03-30T18:23:08.524Z,49.60
2019-03-30T18:25:44.094Z,51.30
2019-03-30T18:28:26.513Z,50.30
2019-03-30T18:30:45.452Z,50.00
2019-03-30T18:33:15.357Z,51.40
2019-03-30T18:35:45.356Z,51.60
2019-03-30T18:38:16.665Z,51.10
2019-03-30T18:40:46.412Z,50.90
2019-03-30T18:43:16.338Z,51.50
2019-03-30T18:45:46.072Z,51.50
2019-03-30T18:48:17.973Z,52.90
2019-03-30T18:50:48.602Z,52.20
2019-03-30T18:53:19.345Z,53.70
2019-03-30T18:55:49.037Z,52.80
2019-03-30T18:58:23.216Z,53.10
2019-03-30T19:00:53.225Z,53.00
2019-03-30T19:03:23.352Z,53.60
2019-03-30T19:05:53.058Z,53.00
2019-03-30T19:08:23.889Z,53.70
2019-03-30T19:10:54.795Z,54.20
2019-03-30T19:13:25.172Z,54.70
2019-03-30T19:15:55.624Z,54.80
2019-03-30T19:18:25.614Z,55.10
2019-03-30T19:20:55.559Z,55.20
2019-03-30T19:23:32.498Z,55.80
2019-03-30T19:26:04.902Z,55.50
2019-03-30T19:28:34.789Z,55.60
2019-03-30T19:31:07.334Z,55.60
2019-03-30T19:33:37.313Z,56.20
2019-03-30T19:36:10.310Z,56.10
2019-03-30T19:38:40.717Z,55.70
2019-03-30T19:41:10.480Z,56.50
2019-03-30T19:43:41.700Z,56.60
2019-03-30T19:46:12.226Z,56.80
2019-03-30T19:48:44.229Z,58.30
2019-03-30T19:51:21.192Z,58.60
2019-03-30T19:53:52.388Z,59.00
2019-03-30T19:56:27.295Z,59.20
2019-03-30T19:59:10.980Z,59.20
2019-03-30T20:01:37.711Z,59.40
2019-03-30T20:04:08.038Z,60.20
2019-03-30T20:06:45.206Z,59.80
2019-03-30T20:09:15.862Z,60.40
2019-03-30T20:11:46.797Z,61.20
2019-03-30T20:14:29.690Z,61.50
2019-03-30T20:17:00.077Z,61.10
2019-03-30T20:19:30.102Z,61.30
2019-03-30T20:21:59.959Z,61.10
2019-03-30T20:24:32.597Z,61.50
2019-03-30T20:27:41.711Z,60.80
2019-03-30T20:30:10.909Z,60.40
2019-03-30T20:32:43.264Z,60.60
2019-03-30T20:35:12.333Z,59.90
2019-03-30T20:37:42.159Z,61.10
2019-03-30T20:40:11.232Z,61.70
2019-03-30T20:42:40.317Z,60.40
2019-03-30T20:45:09.286Z,61.00
2019-03-30T20:47:38.681Z,61.10
2019-03-30T20:50:08.969Z,61.20
2019-03-30T20:52:39.011Z,62.50
2019-03-30T20:55:08.532Z,62.20
2019-03-30T20:57:38.610Z,61.80
2019-03-30T21:00:08.761Z,63.30
2019-03-30T21:02:38.635Z,63.10
2019-03-30T21:05:08.158Z,62.10
2019-03-30T21:07:37.522Z,64.10
2019-03-30T21:10:07.553Z,63.20
2019-03-30T21:12:36.836Z,63.30
2019-03-30T21:15:06.058Z,63.70
2019-03-30T21:17:35.055Z,63.00
2019-03-30T21:20:08.231Z,63.40
2019-03-30T21:22:37.704Z,62.80
2019-03-30T21:25:06.791Z,63.10
2019-03-30T21:27:35.629Z,63.20
2019-03-30T21:30:06.416Z,63.00
2019-03-30T21:32:41.431Z,63.60
2019-03-30T21:35:10.555Z,64.30
2019-03-30T21:37:41.898Z,63.30
2019-03-30T21:40:10.834Z,63.30
2019-03-30T21:42:39.920Z,62.90
2019-03-30T21:45:08.874Z,64.30
2019-03-30T21:47:38.202Z,63.90
2019-03-30T21:50:07.355Z,65.00
2019-03-30T21:52:36.712Z,65.40
2019-03-30T21:55:06.870Z,65.10
2019-03-30T21:57:38.513Z,64.90
2019-03-30T22:00:10.338Z,64.50
2019-03-30T22:02:38.900Z,65.20
2019-03-30T22:05:07.850Z,64.00
2019-03-30T22:07:38.207Z,64.80
2019-03-30T22:10:08.407Z,66.20
2019-03-30T22:12:41.893Z,65.70
2019-03-30T22:15:13.514Z,66.80
2019-03-30T22:17:43.440Z,67.00
2019-03-30T22:20:12.973Z,67.70
2019-03-30T22:22:43.182Z,67.50
2019-03-30T22:25:12.191Z,67.30
2019-03-30T22:27:41.016Z,68.10
2019-03-30T22:30:24.185Z,66.80
2019-03-30T22:32:41.083Z,69.40
2019-03-30T22:35:10.172Z,68.20
2019-03-30T22:37:39.737Z,69.00
2019-03-30T22:40:09.631Z,70.50
2019-03-30T22:42:40.657Z,69.50
2019-03-30T22:45:10.689Z,70.40
2019-03-30T22:47:41.826Z,69.30
2019-03-30T22:50:10.970Z,69.20
2019-03-30T22:52:40.070Z,71.90
2019-03-30T22:55:09.035Z,71.90
2019-03-30T22:57:40.111Z,75.40
2019-03-30T23:00:09.198Z,74.20
2019-03-30T23:02:38.751Z,76.10
2019-03-30T23:05:07.535Z,73.50
2019-03-30T23:07:36.388Z,74.30
2019-03-30T23:10:05.860Z,75.50
2019-03-30T23:12:34.940Z,74.20
2019-03-30T23:15:03.908Z,73.50
2019-03-30T23:17:32.986Z,73.70
2019-03-30T23:20:01.810Z,73.20
2019-03-30T23:22:30.538Z,74.40
2019-03-30T23:24:59.815Z,77.40
2019-03-30T23:27:30.900Z,79.30
2019-03-30T23:30:01.029Z,78.50
2019-03-30T23:32:29.893Z,77.70
2019-03-30T23:34:59.966Z,78.20
2019-03-30T23:37:28.728Z,78.70
2019-03-30T23:39:57.664Z,79.50
2019-03-30T23:42:29.422Z,78.30
2019-03-30T23:44:59.338Z,78.30
2019-03-30T23:47:28.296Z,79.50
2019-03-30T23:49:59.676Z,77.70
2019-03-30T23:52:30.625Z,75.90
2019-03-30T23:54:59.561Z,77.70
2019-03-30T23:57:28.735Z,77.40
2019-03-30T23:59:58.592Z,76.50
